createdAt,value
2018-10-05T00:02:26.579Z,11.41
2018-10-05T00:04:55.771Z,11.50
2018-10-05T00:07:24.913Z,11.53
2018-10-05T00:09:54.321Z,11.45
2018-10-05T00:12:23.372Z,11.34
2018-10-05T00:14:52.553Z,11.29
2018-10-05T00:17:21.542Z,11.25
2018-10-05T00:19:51.033Z,11.19
2018-10-05T00:22:20.188Z,11.13
2018-10-05T00:24:49.286Z,11.07
2018-10-05T00:27:18.382Z,11.03
2018-10-05T00:29:47.677Z,11.04
2018-10-05T00:32:16.734Z,11.08
2018-10-05T00:34:45.910Z,11.00
2018-10-05T00:37:15.389Z,10.97
2018-10-05T00:39:44.522Z,11.03
2018-10-05T00:42:13.813Z,11.01
2018-10-05T00:44:42.992Z,11.02
2018-10-05T00:47:12.075Z,11.06
2018-10-05T00:49:41.146Z,11.05
2018-10-05T00:52:10.517Z,10.93
2018-10-05T00:54:39.542Z,10.92
2018-10-05T00:57:08.658Z,10.92
2018-10-05T00:59:37.788Z,10.93
2018-10-05T01:02:07.011Z,10.97
2018-10-05T01:04:36.083Z,10.98
2018-10-05T01:07:05.373Z,11.00
2018-10-05T01:09:34.481Z,11.01
2018-10-05T01:12:03.844Z,10.98
2018-10-05T01:14:32.873Z,10.99
2018-10-05T01:17:01.881Z,10.98
2018-10-05T01:19:30.922Z,10.83
2018-10-05T01:21:59.973Z,10.70
2018-10-05T01:24:29.117Z,10.63
2018-10-05T01:26:58.156Z,10.62
2018-10-05T01:29:27.211Z,10.62
2018-10-05T01:31:56.292Z,10.56
2018-10-05T01:34:25.455Z,10.54
2018-10-05T01:36:54.507Z,10.52
2018-10-05T01:39:23.546Z,10.52
2018-10-05T01:41:52.585Z,10.50
2018-10-05T01:44:21.708Z,10.48
2018-10-05T01:46:50.639Z,10.49
2018-10-05T01:49:19.839Z,10.42
2018-10-05T01:51:48.757Z,10.37
2018-10-05T01:54:17.832Z,10.29
2018-10-05T01:56:46.920Z,10.31
2018-10-05T01:59:16.244Z,10.43
2018-10-05T02:01:45.173Z,10.41
2018-10-05T02:04:14.334Z,10.38
2018-10-05T02:06:43.494Z,10.39
2018-10-05T02:09:12.565Z,10.39
2018-10-05T02:11:41.583Z,10.37
2018-10-05T02:14:10.715Z,10.36
2018-10-05T02:16:39.821Z,10.33
2018-10-05T02:19:09.009Z,10.28
2018-10-05T02:21:38.394Z,10.29
2018-10-05T02:24:08.466Z,10.17
2018-10-05T02:26:37.873Z,10.08
2018-10-05T02:29:06.945Z,10.09
2018-10-05T02:31:36.088Z,10.04
2018-10-05T02:34:05.156Z,10.08
2018-10-05T02:36:34.197Z,10.07
2018-10-05T02:39:03.363Z,10.00
2018-10-05T02:41:32.587Z,10.07
2018-10-05T02:44:01.672Z,10.07
2018-10-05T02:46:30.860Z,10.05
2018-10-05T02:49:00.045Z,10.00
2018-10-05T02:51:29.134Z,9.91
2018-10-05T02:53:58.264Z,9.84
2018-10-05T02:56:27.620Z,9.85
2018-10-05T02:58:56.703Z,9.79
2018-10-05T03:01:36.854Z,9.74
2018-10-05T03:04:05.864Z,9.66
2018-10-05T03:06:34.889Z,9.57
2018-10-05T03:09:05.369Z,9.48
2018-10-05T03:11:34.328Z,9.47
2018-10-05T03:14:03.457Z,9.51
2018-10-05T03:16:32.551Z,9.49
2018-10-05T03:19:01.729Z,9.41
2018-10-05T03:21:30.712Z,9.34
2018-10-05T03:23:59.827Z,9.28
2018-10-05T03:26:28.983Z,9.28
2018-10-05T03:28:58.804Z,9.26
2018-10-05T03:31:28.145Z,9.27
2018-10-05T03:33:57.224Z,9.30
2018-10-05T03:36:26.420Z,9.41
2018-10-05T03:38:55.941Z,9.40
2018-10-05T03:41:24.911Z,9.31
2018-10-05T03:43:53.931Z,9.30
2018-10-05T03:46:22.993Z,9.33
2018-10-05T03:48:51.992Z,9.28
2018-10-05T03:51:21.034Z,9.24
2018-10-05T03:53:50.469Z,9.19
2018-10-05T03:56:19.395Z,9.24
2018-10-05T03:58:48.333Z,9.26
2018-10-05T04:01:17.926Z,9.19
2018-10-05T04:03:47.056Z,9.19
2018-10-05T04:06:16.038Z,9.16
2018-10-05T04:08:45.206Z,9.09
2018-10-05T04:11:14.129Z,8.99
2018-10-05T04:13:43.114Z,8.93
2018-10-05T04:16:12.505Z,8.88
2018-10-05T04:18:41.676Z,8.84
2018-10-05T04:21:10.712Z,8.83
2018-10-05T04:23:40.165Z,8.83
2018-10-05T04:26:09.198Z,8.87
2018-10-05T04:28:38.256Z,9.01
2018-10-05T04:31:07.319Z,9.02
2018-10-05T04:33:36.531Z,9.09
2018-10-05T04:36:05.595Z,9.26
2018-10-05T04:38:34.798Z,9.21
2018-10-05T04:41:03.849Z,9.23
2018-10-05T04:43:32.797Z,9.23
2018-10-05T04:46:02.224Z,9.30
2018-10-05T04:48:31.391Z,9.39
2018-10-05T04:51:00.489Z,9.50
2018-10-05T04:53:29.851Z,9.44
2018-10-05T04:55:58.777Z,9.44
2018-10-05T04:58:27.713Z,9.49
2018-10-05T05:00:56.945Z,9.54
2018-10-05T05:03:25.899Z,9.64
2018-10-05T05:12:40.266Z,9.65
2018-10-05T05:15:09.174Z,9.76
2018-10-05T05:17:38.003Z,9.88
2018-10-05T05:20:07.217Z,9.97
2018-10-05T05:22:36.338Z,10.01
2018-10-05T05:25:05.392Z,10.01
2018-10-05T05:27:34.815Z,10.03
2018-10-05T05:30:03.990Z,10.08
2018-10-05T05:32:33.100Z,10.17
2018-10-05T05:35:02.118Z,10.30
2018-10-05T05:37:30.908Z,10.38
2018-10-05T05:39:59.745Z,10.43
2018-10-05T05:42:28.627Z,10.49
2018-10-05T05:44:57.407Z,10.59
2018-10-05T05:47:26.448Z,10.63
2018-10-05T05:49:55.484Z,10.70
2018-10-05T05:52:24.363Z,10.79
2018-10-05T05:54:53.276Z,10.89
2018-10-05T05:57:22.673Z,10.97
2018-10-05T05:59:51.545Z,11.02
2018-10-05T06:02:20.473Z,11.15
2018-10-05T06:04:49.512Z,11.24
2018-10-05T06:07:18.540Z,11.36
2018-10-05T06:09:47.491Z,11.43
2018-10-05T06:12:16.560Z,11.47
2018-10-05T06:14:45.465Z,11.56
2018-10-05T06:17:14.469Z,11.65
2018-10-05T06:19:43.477Z,11.69
2018-10-05T06:22:13.814Z,11.74
2018-10-05T06:24:42.604Z,11.78
2018-10-05T06:27:11.843Z,11.83
2018-10-05T06:29:40.914Z,11.96
2018-10-05T06:32:09.712Z,12.03
2018-10-05T06:34:38.789Z,12.14
2018-10-05T06:37:07.787Z,12.21
2018-10-05T06:39:36.721Z,12.26
2018-10-05T06:42:05.931Z,12.30
2018-10-05T06:44:34.893Z,12.36
2018-10-05T06:47:03.920Z,12.44
2018-10-05T06:49:33.036Z,12.53
2018-10-05T06:52:02.159Z,12.64
2018-10-05T06:54:31.113Z,12.71
2018-10-05T06:57:00.521Z,12.78
2018-10-05T06:59:29.430Z,12.87
2018-10-05T07:01:58.465Z,12.95
2018-10-05T07:04:27.432Z,13.03
2018-10-05T07:06:56.397Z,13.15
2018-10-05T07:09:25.471Z,13.27
2018-10-05T07:11:54.694Z,13.39
2018-10-05T07:14:23.681Z,13.46
2018-10-05T07:16:52.681Z,13.54
2018-10-05T07:19:22.124Z,13.66
2018-10-05T07:21:51.008Z,13.69
2018-10-05T07:24:19.909Z,13.81
2018-10-05T07:26:48.816Z,13.86
2018-10-05T07:29:17.668Z,13.99
2018-10-05T07:31:46.560Z,14.11
2018-10-05T07:34:15.863Z,14.22
2018-10-05T07:36:44.882Z,14.12
2018-10-05T07:39:13.760Z,14.28
2018-10-05T07:41:42.705Z,14.35
2018-10-05T07:44:11.567Z,14.45
2018-10-05T07:46:40.471Z,14.58
2018-10-05T07:49:09.793Z,14.73
2018-10-05T07:51:38.749Z,14.78
2018-10-05T07:54:07.661Z,14.87
2018-10-05T07:56:36.707Z,14.88
2018-10-05T07:59:05.704Z,14.98
2018-10-05T08:01:34.733Z,15.09
2018-10-05T08:04:03.684Z,15.24
2018-10-05T08:06:32.680Z,15.45
2018-10-05T08:09:01.531Z,15.59
2018-10-05T08:11:30.406Z,15.67
2018-10-05T08:13:59.222Z,15.77
2018-10-05T08:16:28.088Z,15.79
2018-10-05T08:18:57.003Z,15.91
2018-10-05T08:21:26.042Z,15.97
2018-10-05T08:23:54.970Z,16.08
2018-10-05T08:26:23.975Z,16.19
2018-10-05T08:28:52.981Z,16.19
2018-10-05T08:31:22.174Z,16.27
2018-10-05T08:33:51.110Z,16.43
2018-10-05T08:36:20.140Z,16.54
2018-10-05T08:38:49.150Z,16.71
2018-10-05T08:41:18.738Z,16.87
2018-10-05T08:43:47.618Z,16.84
2018-10-05T08:46:16.637Z,16.85
2018-10-05T08:48:45.743Z,16.94
2018-10-05T08:51:14.818Z,16.70
2018-10-05T08:53:43.856Z,16.85
2018-10-05T08:56:12.869Z,16.88
2018-10-05T08:58:41.732Z,17.03
2018-10-05T09:01:10.662Z,17.21
2018-10-05T09:03:39.805Z,17.16
2018-10-05T09:06:08.763Z,17.19
2018-10-05T09:08:37.741Z,17.22
2018-10-05T09:11:06.688Z,17.23
2018-10-05T09:13:35.548Z,17.31
2018-10-05T09:16:04.481Z,17.44
2018-10-05T09:18:33.681Z,17.45
2018-10-05T09:21:02.587Z,17.63
2018-10-05T09:23:31.614Z,17.71
2018-10-05T09:26:00.908Z,17.89
2018-10-05T09:28:29.724Z,17.86
2018-10-05T09:30:58.756Z,17.76
2018-10-05T09:33:27.967Z,17.93
2018-10-05T09:35:56.929Z,17.82
2018-10-05T09:38:25.824Z,18.10
2018-10-05T09:40:54.801Z,18.28
2018-10-05T09:43:23.824Z,18.46
2018-10-05T09:45:52.800Z,18.25
2018-10-05T09:48:21.695Z,18.17
2018-10-05T09:50:50.499Z,18.29
2018-10-05T09:53:19.482Z,18.42
2018-10-05T09:55:48.792Z,18.50
2018-10-05T09:58:17.793Z,18.63
2018-10-05T10:00:51.891Z,18.81
2018-10-05T10:03:25.943Z,18.71
2018-10-05T10:05:54.888Z,18.60
2018-10-05T10:08:23.952Z,18.45
2018-10-05T10:10:53.101Z,18.56
2018-10-05T10:13:22.908Z,18.53
2018-10-05T10:15:51.834Z,18.72
2018-10-05T10:18:21.005Z,18.89
2018-10-05T10:20:50.096Z,19.07
2018-10-05T10:23:19.189Z,19.24
2018-10-05T10:25:48.080Z,19.48
2018-10-05T10:28:17.546Z,19.34
2018-10-05T10:30:50.814Z,19.55
2018-10-05T10:33:19.862Z,19.68
2018-10-05T10:35:48.808Z,19.76
2018-10-05T10:38:17.835Z,19.67
2018-10-05T10:40:47.562Z,19.62
2018-10-05T10:43:16.581Z,19.39
2018-10-05T10:45:46.303Z,19.52
2018-10-05T10:48:15.983Z,19.43
2018-10-05T10:50:44.820Z,19.60
2018-10-05T10:53:14.878Z,19.67
2018-10-05T10:55:44.185Z,19.81
2018-10-05T10:58:13.245Z,19.90
2018-10-05T11:00:42.308Z,19.91
2018-10-05T11:03:11.862Z,20.02
2018-10-05T11:05:40.907Z,20.11
2018-10-05T11:08:10.018Z,20.19
2018-10-05T11:10:39.676Z,19.97
2018-10-05T11:13:08.797Z,19.90
2018-10-05T11:15:37.831Z,19.92
2018-10-05T11:18:07.289Z,20.01
2018-10-05T11:20:36.219Z,19.96
2018-10-05T11:23:05.299Z,19.93
2018-10-05T11:25:34.608Z,20.01
2018-10-05T11:28:03.624Z,20.11
2018-10-05T11:30:32.666Z,20.08
2018-10-05T11:33:02.025Z,20.07
2018-10-05T11:35:32.650Z,19.89
2018-10-05T11:38:13.943Z,20.06
2018-10-05T11:40:43.236Z,20.15
2018-10-05T11:43:12.469Z,20.29
2018-10-05T11:45:41.478Z,20.35
2018-10-05T11:48:10.537Z,20.48
2018-10-05T11:50:39.869Z,20.47
2018-10-05T11:53:08.932Z,20.45
2018-10-05T11:55:37.818Z,20.45
2018-10-05T11:58:09.690Z,20.51
2018-10-05T12:00:40.915Z,20.55
2018-10-05T12:03:12.353Z,20.57
2018-10-05T12:05:42.167Z,20.54
2018-10-05T12:08:13.790Z,20.61
2018-10-05T12:10:44.871Z,20.63
2018-10-05T12:13:13.962Z,20.60
2018-10-05T12:15:42.927Z,20.69
2018-10-05T12:18:12.056Z,20.76
2018-10-05T12:20:41.316Z,20.91
2018-10-05T12:23:10.383Z,20.99
2018-10-05T12:25:39.470Z,21.11
2018-10-05T12:28:08.558Z,20.99
2018-10-05T12:30:37.634Z,20.96
2018-10-05T12:33:06.867Z,21.03
2018-10-05T12:35:36.128Z,20.97
2018-10-05T12:38:05.281Z,20.94
2018-10-05T12:40:34.284Z,21.15
2018-10-05T12:43:03.855Z,21.22
2018-10-05T12:45:32.883Z,21.24
2018-10-05T12:48:01.920Z,21.21
2018-10-05T12:50:31.044Z,21.23
2018-10-05T12:53:00.097Z,21.11
2018-10-05T12:55:29.275Z,21.14
2018-10-05T12:57:58.426Z,21.30
2018-10-05T13:00:27.388Z,21.23
2018-10-05T13:02:56.496Z,21.12
2018-10-05T13:05:26.610Z,21.29
2018-10-05T13:07:55.792Z,21.21
2018-10-05T13:10:24.717Z,21.16
2018-10-05T13:12:53.727Z,21.12
2018-10-05T13:15:22.817Z,21.15
2018-10-05T13:17:51.856Z,21.13
2018-10-05T13:20:21.279Z,21.14
2018-10-05T13:22:51.095Z,21.27
2018-10-05T13:25:20.207Z,21.28
2018-10-05T13:27:49.762Z,21.26
2018-10-05T13:30:18.762Z,21.17
2018-10-05T13:32:47.832Z,21.17
2018-10-05T13:35:17.253Z,21.14
2018-10-05T13:37:46.269Z,21.08
2018-10-05T13:40:15.261Z,21.16
2018-10-05T13:42:44.654Z,21.18
2018-10-05T13:45:13.752Z,21.23
2018-10-05T13:47:42.709Z,21.23
2018-10-05T13:50:13.455Z,21.23
2018-10-05T13:52:42.403Z,21.18
2018-10-05T13:55:11.748Z,21.23
2018-10-05T13:57:40.827Z,21.17
2018-10-05T14:00:09.981Z,21.14
2018-10-05T14:02:38.953Z,21.08
2018-10-05T14:05:08.025Z,21.09
2018-10-05T14:07:36.915Z,21.17
2018-10-05T14:10:06.102Z,21.17
2018-10-05T14:12:35.289Z,21.19
2018-10-05T14:15:04.296Z,21.07
2018-10-05T14:17:33.191Z,21.05
2018-10-05T14:20:02.209Z,21.06
2018-10-05T14:22:31.294Z,21.04
2018-10-05T14:25:00.123Z,21.09
2018-10-05T14:27:29.087Z,20.98
2018-10-05T14:29:58.391Z,21.07
2018-10-05T14:32:27.321Z,20.89
2018-10-05T14:34:56.449Z,20.83
2018-10-05T14:37:25.484Z,20.86
2018-10-05T14:39:54.385Z,20.89
2018-10-05T14:42:23.736Z,20.90
2018-10-05T14:44:52.979Z,20.95
2018-10-05T14:47:22.637Z,20.91
2018-10-05T14:49:51.997Z,20.90
2018-10-05T14:52:24.026Z,20.78
2018-10-05T14:54:54.430Z,20.80
2018-10-05T14:57:23.854Z,20.76
2018-10-05T14:59:54.037Z,20.74
2018-10-05T15:02:23.150Z,20.68
2018-10-05T15:04:56.258Z,20.62
2018-10-05T15:07:33.976Z,20.53
2018-10-05T15:10:04.199Z,20.56
2018-10-05T15:12:33.392Z,20.53
2018-10-05T15:15:02.381Z,20.51
2018-10-05T15:17:31.355Z,20.49
2018-10-05T15:20:00.365Z,20.47
2018-10-05T15:22:29.400Z,20.36
2018-10-05T15:24:58.927Z,20.36
2018-10-05T15:27:28.488Z,20.29
2018-10-05T15:29:57.435Z,20.32
2018-10-05T15:32:26.634Z,20.28
2018-10-05T15:34:55.659Z,20.12
2018-10-05T15:37:24.937Z,20.08
2018-10-05T15:39:54.452Z,20.03
2018-10-05T15:42:23.504Z,19.93
2018-10-05T15:44:52.571Z,19.85
2018-10-05T15:47:21.809Z,19.71
2018-10-05T15:49:50.705Z,19.69
2018-10-05T15:52:19.666Z,19.65
2018-10-05T15:54:49.066Z,19.55
2018-10-05T15:57:18.060Z,19.49
2018-10-05T15:59:47.040Z,19.29
2018-10-05T16:02:15.983Z,19.29
2018-10-05T16:04:44.825Z,19.23
2018-10-05T16:07:13.749Z,19.23
2018-10-05T16:09:43.208Z,19.18
2018-10-05T16:12:12.131Z,19.13
2018-10-05T16:14:41.200Z,19.08
2018-10-05T16:17:10.485Z,19.02
2018-10-05T16:19:39.384Z,18.92
2018-10-05T16:22:08.385Z,18.90
2018-10-05T16:24:40.580Z,18.89
2018-10-05T16:27:10.242Z,18.83
2018-10-05T16:29:39.441Z,18.78
2018-10-05T16:32:10.584Z,18.74
2018-10-05T16:34:39.551Z,18.66
2018-10-05T16:37:08.629Z,18.52
2018-10-05T16:39:38.022Z,18.31
2018-10-05T16:42:06.986Z,18.05
2018-10-05T16:44:35.861Z,17.85
2018-10-05T16:47:05.101Z,17.72
2018-10-05T16:49:34.150Z,17.56
2018-10-05T16:52:03.359Z,17.61
2018-10-05T16:54:33.126Z,17.63
2018-10-05T16:57:02.965Z,17.47
2018-10-05T16:59:32.009Z,17.34
2018-10-05T17:02:01.274Z,17.32
2018-10-05T17:04:30.209Z,17.22
2018-10-05T17:06:59.324Z,17.12
2018-10-05T17:09:28.346Z,17.09
2018-10-05T17:11:57.322Z,16.96
2018-10-05T17:14:26.420Z,16.88
2018-10-05T17:16:55.451Z,16.83
2018-10-05T17:19:24.493Z,16.74
2018-10-05T17:21:54.485Z,16.80
2018-10-05T17:24:23.823Z,16.89
2018-10-05T17:26:52.877Z,16.92
2018-10-05T17:29:22.253Z,16.81
2018-10-05T17:31:51.579Z,16.74
2018-10-05T17:34:20.557Z,16.77
2018-10-05T17:36:49.662Z,16.80
2018-10-05T17:39:19.058Z,16.86
2018-10-05T17:41:48.047Z,16.90
2018-10-05T17:44:17.093Z,16.84
2018-10-05T17:46:46.245Z,16.74
2018-10-05T17:49:15.291Z,16.51
2018-10-05T17:51:44.461Z,16.58
2018-10-05T17:54:13.561Z,16.52
2018-10-05T17:56:42.769Z,16.46
2018-10-05T17:59:11.934Z,16.28
2018-10-05T18:01:40.999Z,16.25
2018-10-05T18:04:10.457Z,16.22
2018-10-05T18:06:40.013Z,16.16
2018-10-05T18:09:09.034Z,16.01
2018-10-05T18:11:38.720Z,15.95
2018-10-05T18:14:07.735Z,15.94
2018-10-05T18:16:36.839Z,15.85
2018-10-05T18:19:06.788Z,15.73
2018-10-05T18:21:35.902Z,15.94
2018-10-05T18:24:05.446Z,15.91
2018-10-05T18:26:34.894Z,15.89
2018-10-05T18:29:03.996Z,15.85
2018-10-05T18:31:33.020Z,15.81
2018-10-05T18:34:02.465Z,15.79
2018-10-05T18:36:32.393Z,15.70
2018-10-05T18:39:01.449Z,15.62
2018-10-05T18:41:35.183Z,15.41
2018-10-05T18:44:04.343Z,15.45
2018-10-05T18:46:33.560Z,15.39
2018-10-05T18:49:04.066Z,15.28
2018-10-05T18:51:33.105Z,15.22
2018-10-05T18:54:02.645Z,15.17
2018-10-05T18:56:42.715Z,15.25
2018-10-05T18:59:11.700Z,15.33
2018-10-05T19:01:40.934Z,15.31
2018-10-05T19:04:10.230Z,15.24
2018-10-05T19:06:39.407Z,15.24
2018-10-05T19:09:09.033Z,15.25
2018-10-05T19:11:38.494Z,15.24
2018-10-05T19:14:07.572Z,15.13
2018-10-05T19:16:36.565Z,15.12
2018-10-05T19:19:06.824Z,15.14
2018-10-05T19:21:36.285Z,15.19
2018-10-05T19:24:05.297Z,15.08
2018-10-05T19:26:34.629Z,15.21
2018-10-05T19:29:03.953Z,15.23
2018-10-05T19:31:32.957Z,15.25
2018-10-05T19:34:02.346Z,15.05
2018-10-05T19:36:31.297Z,14.91
2018-10-05T19:39:00.348Z,14.81
2018-10-05T19:41:29.492Z,14.91
2018-10-05T19:43:58.432Z,15.10
2018-10-05T19:46:27.443Z,15.11
2018-10-05T19:48:56.348Z,15.01
2018-10-05T19:51:25.456Z,14.93
2018-10-05T19:53:54.369Z,14.82
2018-10-05T19:56:23.408Z,14.70
2018-10-05T19:58:52.483Z,14.62
2018-10-05T20:01:21.708Z,14.61
2018-10-05T20:03:50.776Z,14.57
2018-10-05T20:06:19.896Z,14.65
2018-10-05T20:08:49.025Z,14.65
2018-10-05T20:11:18.385Z,14.68
2018-10-05T20:13:47.383Z,14.64
2018-10-05T20:16:16.410Z,14.61
2018-10-05T20:18:45.404Z,14.54
2018-10-05T20:21:14.441Z,14.45
2018-10-05T20:23:43.520Z,14.36
2018-10-05T20:26:12.611Z,14.27
2018-10-05T20:28:41.666Z,14.24
2018-10-05T20:31:10.568Z,14.25
2018-10-05T20:33:39.999Z,14.17
2018-10-05T20:36:09.085Z,14.24
2018-10-05T20:38:38.222Z,14.18
2018-10-05T20:41:07.188Z,14.02
2018-10-05T20:43:36.511Z,13.97
2018-10-05T20:46:05.668Z,13.91
2018-10-05T20:48:35.179Z,13.80
2018-10-05T20:51:04.198Z,13.69
2018-10-05T20:53:33.255Z,13.69
2018-10-05T20:56:02.869Z,13.65
2018-10-05T20:58:31.970Z,13.60
2018-10-05T21:01:01.001Z,13.49
2018-10-05T21:03:30.042Z,13.41
2018-10-05T21:05:59.290Z,13.28
2018-10-05T21:08:28.569Z,13.22
2018-10-05T21:10:58.020Z,13.11
2018-10-05T21:13:27.038Z,13.03
2018-10-05T21:15:56.021Z,12.96
2018-10-05T21:18:25.305Z,12.91
2018-10-05T21:20:54.320Z,12.90
2018-10-05T21:23:23.292Z,12.81
2018-10-05T21:25:52.526Z,12.73
2018-10-05T21:28:21.594Z,12.79
2018-10-05T21:30:50.702Z,12.80
2018-10-05T21:33:19.849Z,12.81
2018-10-05T21:35:48.735Z,12.83
2018-10-05T21:38:17.783Z,12.75
2018-10-05T21:40:46.825Z,12.91
2018-10-05T21:43:16.032Z,12.78
2018-10-05T21:45:44.949Z,12.64
2018-10-05T21:48:13.965Z,12.62
2018-10-05T21:50:43.002Z,12.54
2018-10-05T21:53:12.006Z,12.52
2018-10-05T21:55:41.137Z,12.50
2018-10-05T21:58:10.168Z,12.49
2018-10-05T22:00:39.987Z,12.44
2018-10-05T22:03:09.578Z,12.40
2018-10-05T22:05:38.865Z,12.43
2018-10-05T22:08:07.856Z,12.45
2018-10-05T22:10:36.861Z,12.46
2018-10-05T22:13:05.819Z,12.44
2018-10-05T22:15:34.948Z,12.45
2018-10-05T22:18:04.351Z,12.53
2018-10-05T22:20:33.300Z,12.63
2018-10-05T22:23:02.379Z,12.66
2018-10-05T22:25:31.370Z,12.62
2018-10-05T22:28:00.352Z,12.57
2018-10-05T22:30:29.344Z,12.44
2018-10-05T22:32:58.450Z,12.43
2018-10-05T22:35:27.473Z,12.39
2018-10-05T22:37:56.912Z,12.30
2018-10-05T22:40:26.185Z,12.11
2018-10-05T22:42:55.274Z,12.02
2018-10-05T22:45:24.200Z,11.99
2018-10-05T22:47:53.467Z,11.86
2018-10-05T22:50:22.506Z,11.75
2018-10-05T22:52:51.506Z,11.75
2018-10-05T22:55:20.835Z,11.81
2018-10-05T22:57:49.962Z,11.73
2018-10-05T23:00:19.008Z,11.86
2018-10-05T23:02:48.425Z,11.79
2018-10-05T23:05:17.451Z,11.79
2018-10-05T23:07:46.468Z,11.79
2018-10-05T23:10:15.757Z,11.85
2018-10-05T23:12:44.953Z,11.87
2018-10-05T23:15:13.870Z,11.76
2018-10-05T23:17:42.891Z,11.68
2018-10-05T23:20:11.845Z,11.63
2018-10-05T23:22:40.900Z,11.53
2018-10-05T23:25:09.951Z,11.46
2018-10-05T23:27:39.000Z,11.38
2018-10-05T23:30:08.161Z,11.38
2018-10-05T23:32:37.399Z,11.33
2018-10-05T23:35:06.632Z,11.29
2018-10-05T23:37:35.648Z,11.28
2018-10-05T23:40:05.089Z,11.24
2018-10-05T23:42:34.177Z,11.17
2018-10-05T23:45:03.256Z,11.09
2018-10-05T23:47:32.886Z,11.04
2018-10-05T23:50:01.852Z,10.90
2018-10-05T23:52:45.024Z,10.82
2018-10-05T23:55:14.059Z,10.78
2018-10-05T23:57:43.563Z,10.72
